createdAt,value
2018-05-15T00:02:00.856Z,72.30
2018-05-15T00:04:33.203Z,74.10
2018-05-15T00:07:06.323Z,76.70
2018-05-15T00:09:38.669Z,76.70
2018-05-15T00:12:10.978Z,75.40
2018-05-15T00:14:43.352Z,75.60
2018-05-15T00:17:16.448Z,77.70
2018-05-15T00:19:48.930Z,77.60
2018-05-15T00:22:21.522Z,77.70
2018-05-15T00:24:53.782Z,76.70
2018-05-15T00:27:26.145Z,78.70
2018-05-15T00:29:58.567Z,77.40
2018-05-15T00:32:31.608Z,77.70
2018-05-15T00:35:03.907Z,78.40
2018-05-15T00:37:37.077Z,79.10
2018-05-15T00:40:09.465Z,79.10
2018-05-15T00:42:41.692Z,80.60
2018-05-15T00:45:14.037Z,80.90
2018-05-15T00:47:47.082Z,80.80
2018-05-15T00:50:19.408Z,80.90
2018-05-15T00:52:51.873Z,79.80
2018-05-15T00:55:36.502Z,81.60
2018-05-15T00:58:09.594Z,80.60
2018-05-15T01:00:42.071Z,80.60
2018-05-15T01:03:14.427Z,82.40
2018-05-15T01:05:46.710Z,83.60
2018-05-15T01:08:19.034Z,82.50
2018-05-15T01:10:51.331Z,82.40
2018-05-15T01:13:23.684Z,81.70
2018-05-15T01:15:55.966Z,82.80
2018-05-15T01:18:28.300Z,82.80
2018-05-15T01:21:00.638Z,83.90
2018-05-15T01:23:32.986Z,83.80
2018-05-15T01:26:05.430Z,83.60
2018-05-15T01:28:37.766Z,84.80
2018-05-15T01:31:10.154Z,84.60
2018-05-15T01:33:43.309Z,85.50
2018-05-15T01:36:15.700Z,85.50
2018-05-15T01:38:48.164Z,84.30
2018-05-15T01:41:20.646Z,83.40
2018-05-15T01:43:52.982Z,84.50
2018-05-15T01:46:25.321Z,85.80
2018-05-15T01:48:58.483Z,84.20
2018-05-15T01:51:30.848Z,84.10
2018-05-15T01:54:03.183Z,84.40
2018-05-15T01:56:36.207Z,86.30
2018-05-15T01:59:08.555Z,86.20
2018-05-15T02:01:40.864Z,86.30
2018-05-15T02:04:13.158Z,85.70
2018-05-15T02:06:46.256Z,85.30
2018-05-15T02:09:18.621Z,85.30
2018-05-15T02:11:51.785Z,84.70
2018-05-15T02:14:24.139Z,84.70
2018-05-15T02:16:56.467Z,84.20
2018-05-15T02:19:28.767Z,85.10
2018-05-15T02:22:01.495Z,86.80
2018-05-15T02:24:34.611Z,88.70
2018-05-15T02:27:06.920Z,88.70
2018-05-15T02:29:39.300Z,87.30
2018-05-15T02:32:11.807Z,89.40
2018-05-15T02:34:44.981Z,88.10
2018-05-15T02:37:18.101Z,86.80
2018-05-15T02:39:50.425Z,86.70
2018-05-15T02:42:22.862Z,86.50
2018-05-15T02:44:55.168Z,87.30
2018-05-15T02:47:27.568Z,87.60
2018-05-15T02:50:00.753Z,89.10
2018-05-15T02:52:33.959Z,87.00
2018-05-15T02:55:07.115Z,87.90
2018-05-15T02:57:39.413Z,87.90
2018-05-15T03:00:12.570Z,88.60
2018-05-15T03:02:45.015Z,88.60
2018-05-15T03:05:17.319Z,89.00
2018-05-15T03:07:49.682Z,88.00
2018-05-15T03:10:22.074Z,88.20
2018-05-15T03:12:54.445Z,89.40
2018-05-15T03:15:26.805Z,89.30
2018-05-15T03:17:59.142Z,88.20
2018-05-15T03:20:31.534Z,90.10
2018-05-15T03:23:04.612Z,89.80
2018-05-15T03:25:37.026Z,89.80
2018-05-15T03:28:09.374Z,90.50
2018-05-15T03:30:41.649Z,90.00
2018-05-15T03:33:14.038Z,90.60
2018-05-15T03:35:46.341Z,90.60
2018-05-15T03:38:18.715Z,90.90
2018-05-15T03:40:51.790Z,91.10
2018-05-15T03:43:25.030Z,91.10
2018-05-15T03:45:57.365Z,91.10
2018-05-15T03:48:30.369Z,90.90
2018-05-15T03:51:02.683Z,90.90
2018-05-15T03:53:35.113Z,90.70
2018-05-15T03:56:07.473Z,90.30
2018-05-15T03:58:40.610Z,91.20
2018-05-15T04:01:25.404Z,91.20
2018-05-15T04:04:10.315Z,91.30
2018-05-15T04:06:54.965Z,91.70
2018-05-15T04:09:28.052Z,91.80
2018-05-15T04:12:01.083Z,91.80
2018-05-15T04:14:40.398Z,91.80
2018-05-15T04:17:12.800Z,91.50
2018-05-15T04:19:45.143Z,91.30
2018-05-15T04:22:18.403Z,91.30
2018-05-15T04:24:50.731Z,90.80
2018-05-15T04:27:22.960Z,91.10
2018-05-15T04:29:56.094Z,91.20
2018-05-15T04:32:28.368Z,91.20
2018-05-15T04:35:00.797Z,91.20
2018-05-15T04:37:33.934Z,91.30
2018-05-15T04:40:06.298Z,91.30
2018-05-15T04:42:38.575Z,91.20
2018-05-15T04:45:10.886Z,91.10
2018-05-15T04:47:43.955Z,89.70
2018-05-15T04:50:16.329Z,89.70
2018-05-15T04:52:48.696Z,90.00
2018-05-15T04:55:21.000Z,90.30
2018-05-15T04:57:53.318Z,89.10
2018-05-15T05:00:25.675Z,88.50
2018-05-15T05:02:57.941Z,88.00
2018-05-15T05:05:30.290Z,87.60
2018-05-15T05:08:03.646Z,86.10
2018-05-15T05:10:36.045Z,86.10
2018-05-15T05:13:08.377Z,85.70
2018-05-15T05:15:40.702Z,85.50
2018-05-15T05:18:13.845Z,84.80
2018-05-15T05:20:46.139Z,84.80
2018-05-15T05:23:18.392Z,84.30
2018-05-15T05:25:50.755Z,84.20
2018-05-15T05:28:23.139Z,84.20
2018-05-15T05:30:55.491Z,84.30
2018-05-15T05:33:27.919Z,82.80
2018-05-15T05:36:01.085Z,83.00
2018-05-15T05:38:33.410Z,82.90
2018-05-15T05:41:05.805Z,82.90
2018-05-15T05:43:38.180Z,84.00
2018-05-15T05:46:10.500Z,83.00
2018-05-15T05:48:43.684Z,82.70
2018-05-15T05:51:16.003Z,82.60
2018-05-15T05:53:48.353Z,80.90
2018-05-15T05:56:20.711Z,80.60
2018-05-15T05:58:53.031Z,80.40
2018-05-15T06:01:25.561Z,82.80
2018-05-15T06:03:58.725Z,81.60
2018-05-15T06:06:31.308Z,81.60
2018-05-15T06:09:03.688Z,81.70
2018-05-15T06:11:36.161Z,80.30
2018-05-15T06:14:08.448Z,79.20
2018-05-15T06:16:40.763Z,79.60
2018-05-15T06:19:13.356Z,77.80
2018-05-15T06:21:45.671Z,77.50
2018-05-15T06:24:18.786Z,76.00
2018-05-15T06:26:51.193Z,75.90
2018-05-15T06:29:23.576Z,74.90
2018-05-15T06:31:55.997Z,73.50
2018-05-15T06:34:28.325Z,72.30
2018-05-15T06:37:00.680Z,68.60
2018-05-15T06:39:33.042Z,63.90
2018-05-15T06:42:05.385Z,60.00
2018-05-15T06:44:37.855Z,59.60
2018-05-15T06:47:10.151Z,57.90
2018-05-15T06:49:42.486Z,58.40
2018-05-15T06:52:14.869Z,53.20
2018-05-15T06:54:47.284Z,53.90
2018-05-15T06:57:19.598Z,52.10
2018-05-15T06:59:52.565Z,50.70
2018-05-15T07:02:25.723Z,49.50
2018-05-15T07:04:58.058Z,49.50
2018-05-15T07:07:31.225Z,48.70
2018-05-15T07:10:03.634Z,48.50
2018-05-15T07:12:35.975Z,47.80
2018-05-15T07:15:08.218Z,49.50
2018-05-15T07:17:40.516Z,48.60
2018-05-15T07:20:12.849Z,48.30
2018-05-15T07:22:45.281Z,46.10
2018-05-15T07:25:18.326Z,46.60
2018-05-15T07:27:50.797Z,46.50
2018-05-15T07:30:23.171Z,43.20
2018-05-15T07:32:55.517Z,40.20
2018-05-15T07:35:27.867Z,41.80
2018-05-15T07:38:00.088Z,37.30
2018-05-15T07:40:32.446Z,39.00
2018-05-15T07:43:04.851Z,37.30
2018-05-15T07:45:37.897Z,35.30
2018-05-15T07:48:10.345Z,35.30
2018-05-15T07:50:42.663Z,35.10
2018-05-15T07:53:14.982Z,34.80
2018-05-15T07:55:47.309Z,35.10
2018-05-15T07:58:19.700Z,35.30
2018-05-15T08:00:52.045Z,34.20
2018-05-15T08:03:24.324Z,33.10
2018-05-15T08:05:56.626Z,33.80
2018-05-15T08:08:29.719Z,36.30
2018-05-15T08:11:02.892Z,34.00
2018-05-15T08:13:35.214Z,33.90
2018-05-15T08:16:07.518Z,34.10
2018-05-15T08:18:39.931Z,35.10
2018-05-15T08:21:13.038Z,32.80
2018-05-15T08:23:45.477Z,32.80
2018-05-15T08:26:17.943Z,32.60
2018-05-15T08:28:50.225Z,34.60
2018-05-15T08:31:22.515Z,35.40
2018-05-15T08:33:55.452Z,30.70
2018-05-15T08:36:27.797Z,30.60
2018-05-15T08:39:00.104Z,31.00
2018-05-15T08:41:32.455Z,30.10
2018-05-15T08:44:04.930Z,30.30
2018-05-15T08:46:37.953Z,29.10
2018-05-15T08:49:10.339Z,29.10
2018-05-15T08:51:43.480Z,32.60
2018-05-15T08:54:16.635Z,29.50
2018-05-15T08:56:49.782Z,29.90
2018-05-15T08:59:22.150Z,29.80
2018-05-15T09:01:54.549Z,29.10
2018-05-15T09:04:26.836Z,31.60
2018-05-15T09:06:59.913Z,28.50
2018-05-15T09:09:32.279Z,28.40
2018-05-15T09:12:04.640Z,28.30
2018-05-15T09:14:37.091Z,27.20
2018-05-15T09:17:10.104Z,27.60
2018-05-15T09:19:42.490Z,27.60
2018-05-15T09:22:14.789Z,26.00
2018-05-15T09:24:47.151Z,28.00
2018-05-15T09:27:19.562Z,26.90
2018-05-15T09:29:51.878Z,28.80
2018-05-15T09:32:24.199Z,27.80
2018-05-15T09:34:56.604Z,28.50
2018-05-15T09:37:28.861Z,31.40
2018-05-15T09:40:01.028Z,27.10
2018-05-15T09:42:33.323Z,26.40
2018-05-15T09:45:05.776Z,27.50
2018-05-15T09:47:38.044Z,26.60
2018-05-15T09:50:10.441Z,26.90
2018-05-15T09:52:42.751Z,27.10
2018-05-15T09:55:15.125Z,27.90
2018-05-15T09:57:47.660Z,28.10
2018-05-15T10:00:20.056Z,26.80
2018-05-15T10:02:53.201Z,31.70
2018-05-15T10:05:25.556Z,31.70
2018-05-15T10:07:57.996Z,28.70
2018-05-15T10:10:30.262Z,28.90
2018-05-15T10:13:03.289Z,29.00
2018-05-15T10:15:36.369Z,28.70
2018-05-15T10:18:08.678Z,28.70
2018-05-15T10:20:41.007Z,30.30
2018-05-15T10:23:13.305Z,32.10
2018-05-15T10:25:45.752Z,36.70
2018-05-15T10:28:18.102Z,34.30
2018-05-15T10:30:51.222Z,33.80
2018-05-15T10:33:23.800Z,33.70
2018-05-15T10:35:56.201Z,31.20
2018-05-15T10:38:28.544Z,33.00
2018-05-15T10:41:00.963Z,32.30
2018-05-15T10:43:33.285Z,31.00
2018-05-15T10:46:05.647Z,36.10
2018-05-15T10:48:37.977Z,31.60
2018-05-15T10:51:10.764Z,32.70
2018-05-15T10:53:43.054Z,31.90
2018-05-15T10:56:15.396Z,30.40
2018-05-15T10:58:47.733Z,31.50
2018-05-15T11:01:20.061Z,34.30
2018-05-15T11:03:52.473Z,32.70
2018-05-15T11:06:24.829Z,29.50
2018-05-15T11:08:57.152Z,31.80
2018-05-15T11:11:29.989Z,33.30
2018-05-15T11:14:03.023Z,31.10
2018-05-15T11:16:35.345Z,31.10
2018-05-15T11:19:20.794Z,32.30
2018-05-15T11:22:05.924Z,32.40
2018-05-15T11:24:50.739Z,29.70
2018-05-15T11:27:23.221Z,34.70
2018-05-15T11:29:55.606Z,32.40
2018-05-15T11:32:27.947Z,34.60
2018-05-15T11:35:00.199Z,32.40
2018-05-15T11:37:32.664Z,31.50
2018-05-15T11:40:05.168Z,32.50
2018-05-15T11:42:37.575Z,32.50
2018-05-15T11:45:10.705Z,30.10
2018-05-15T11:47:43.395Z,30.00
2018-05-15T11:50:17.285Z,31.10
2018-05-15T11:52:50.129Z,32.30
2018-05-15T11:55:22.651Z,34.50
2018-05-15T11:57:55.002Z,34.50
2018-05-15T12:00:27.321Z,33.60
2018-05-15T12:02:59.713Z,29.80
2018-05-15T12:05:32.872Z,31.90
2018-05-15T12:08:05.348Z,31.80
2018-05-15T12:10:37.808Z,31.80
2018-05-15T12:13:10.912Z,30.00
2018-05-15T12:15:43.179Z,30.00
2018-05-15T12:18:15.383Z,30.80
2018-05-15T12:20:48.388Z,31.90
2018-05-15T12:23:21.566Z,32.10
2018-05-15T12:25:54.668Z,36.00
2018-05-15T12:28:27.695Z,31.80
2018-05-15T12:31:00.074Z,31.70
2018-05-15T12:33:32.432Z,31.60
2018-05-15T12:36:04.773Z,32.90
2018-05-15T12:38:37.226Z,32.30
2018-05-15T12:41:09.715Z,32.30
2018-05-15T12:43:42.125Z,35.80
2018-05-15T12:46:14.557Z,36.00
2018-05-15T12:48:47.765Z,36.50
2018-05-15T12:51:20.060Z,36.50
2018-05-15T12:53:52.691Z,36.00
2018-05-15T12:56:25.739Z,35.10
2018-05-15T12:58:58.124Z,35.00
2018-05-15T13:01:30.721Z,33.50
2018-05-15T13:04:03.013Z,34.60
2018-05-15T13:06:36.005Z,33.90
2018-05-15T13:09:09.041Z,35.50
2018-05-15T13:11:41.368Z,35.60
2018-05-15T13:14:14.521Z,33.80
2018-05-15T13:16:46.853Z,33.60
2018-05-15T13:19:19.182Z,34.40
2018-05-15T13:21:51.411Z,35.60
2018-05-15T13:24:23.800Z,34.50
2018-05-15T13:26:56.358Z,35.50
2018-05-15T13:29:28.752Z,32.20
2018-05-15T13:32:01.217Z,37.00
2018-05-15T13:34:33.641Z,39.60
2018-05-15T13:37:06.691Z,35.70
2018-05-15T13:39:39.060Z,35.60
2018-05-15T13:42:11.368Z,36.80
2018-05-15T13:44:43.778Z,35.90
2018-05-15T13:47:16.069Z,36.60
2018-05-15T13:49:48.494Z,36.60
2018-05-15T13:52:21.648Z,38.00
2018-05-15T13:54:54.035Z,38.00
2018-05-15T13:57:26.326Z,40.80
2018-05-15T13:59:59.496Z,41.90
2018-05-15T14:02:31.828Z,41.90
2018-05-15T14:05:04.144Z,43.50
2018-05-15T14:07:36.479Z,44.60
2018-05-15T14:10:09.084Z,44.80
2018-05-15T14:12:41.448Z,43.40
2018-05-15T14:15:14.020Z,43.00
2018-05-15T14:17:46.413Z,43.70
2018-05-15T14:20:19.627Z,43.70
2018-05-15T14:22:51.903Z,43.60
2018-05-15T14:25:25.174Z,44.20
2018-05-15T14:27:58.229Z,43.10
2018-05-15T14:30:30.552Z,43.00
2018-05-15T14:33:03.591Z,44.50
2018-05-15T14:35:35.963Z,44.40
2018-05-15T14:38:08.231Z,47.10
2018-05-15T14:40:40.559Z,45.70
2018-05-15T14:43:25.218Z,45.20
2018-05-15T14:45:57.610Z,45.40
2018-05-15T14:48:30.015Z,44.30
2018-05-15T14:51:32.300Z,45.20
2018-05-15T14:54:10.735Z,45.50
2018-05-15T14:56:43.772Z,47.10
2018-05-15T14:59:16.164Z,46.50
2018-05-15T15:01:48.530Z,45.20
2018-05-15T15:04:20.813Z,44.90
2018-05-15T15:06:53.132Z,46.80
2018-05-15T15:09:26.111Z,46.50
2018-05-15T15:11:59.213Z,48.40
2018-05-15T15:14:31.566Z,48.40
2018-05-15T15:17:04.771Z,47.50
2018-05-15T15:19:37.919Z,47.00
2018-05-15T15:22:10.233Z,47.00
2018-05-15T15:24:42.533Z,46.10
2018-05-15T15:27:14.974Z,48.60
2018-05-15T15:29:48.054Z,47.10
2018-05-15T15:32:20.404Z,47.10
2018-05-15T15:34:52.762Z,47.40
2018-05-15T15:37:25.132Z,48.80
2018-05-15T15:39:57.481Z,47.70
2018-05-15T15:42:29.899Z,49.20
2018-05-15T15:45:02.239Z,49.80
2018-05-15T15:47:34.531Z,51.10
2018-05-15T15:50:06.881Z,51.10
2018-05-15T15:52:39.177Z,50.20
2018-05-15T15:55:11.468Z,49.20
2018-05-15T15:57:44.561Z,51.50
2018-05-15T16:00:17.716Z,50.60
2018-05-15T16:02:50.023Z,50.50
2018-05-15T16:05:23.569Z,50.20
2018-05-15T16:07:55.997Z,50.10
2018-05-15T16:10:29.059Z,50.90
2018-05-15T16:13:01.418Z,50.80
2018-05-15T16:15:33.799Z,51.00
2018-05-15T16:18:06.376Z,51.20
2018-05-15T16:20:38.846Z,51.20
2018-05-15T16:23:11.977Z,52.20
2018-05-15T16:25:45.466Z,53.10
2018-05-15T16:28:18.000Z,53.10
2018-05-15T16:30:50.263Z,52.10
2018-05-15T16:33:22.701Z,51.80
2018-05-15T16:35:55.840Z,51.40
2018-05-15T16:38:28.368Z,51.40
2018-05-15T16:41:01.513Z,51.70
2018-05-15T16:43:33.953Z,51.60
2018-05-15T16:46:06.325Z,52.40
2018-05-15T16:48:38.782Z,51.30
2018-05-15T16:51:11.932Z,52.20
2018-05-15T16:53:44.247Z,52.20
2018-05-15T16:56:17.419Z,52.60
2018-05-15T16:58:49.802Z,52.60
2018-05-15T17:01:22.891Z,53.60
2018-05-15T17:03:56.089Z,53.40
2018-05-15T17:06:29.216Z,53.20
2018-05-15T17:09:01.491Z,53.10
2018-05-15T17:11:34.642Z,54.10
2018-05-15T17:14:07.766Z,54.50
2018-05-15T17:16:41.040Z,56.00
2018-05-15T17:19:13.476Z,55.90
2018-05-15T17:21:45.813Z,55.10
2018-05-15T17:24:18.136Z,54.00
2018-05-15T17:26:51.230Z,54.60
2018-05-15T17:29:24.421Z,54.40
2018-05-15T17:31:57.547Z,54.90
2018-05-15T17:34:29.898Z,54.90
2018-05-15T17:37:02.230Z,56.00
2018-05-15T17:39:34.631Z,55.80
2018-05-15T17:42:07.826Z,56.30
2018-05-15T17:44:40.184Z,56.30
2018-05-15T17:47:13.274Z,57.20
2018-05-15T17:49:45.635Z,57.10
2018-05-15T17:52:17.980Z,58.00
2018-05-15T17:54:50.348Z,58.20
2018-05-15T17:57:22.750Z,58.60
2018-05-15T17:59:55.183Z,58.80
2018-05-15T18:02:27.538Z,58.90
2018-05-15T18:05:00.665Z,60.90
2018-05-15T18:07:33.083Z,60.90
2018-05-15T18:10:06.388Z,59.60
2018-05-15T18:12:38.633Z,59.60
2018-05-15T18:15:11.047Z,58.40
2018-05-15T18:17:44.112Z,57.80
2018-05-15T18:20:17.225Z,59.50
2018-05-15T18:22:49.650Z,59.60
2018-05-15T18:25:22.561Z,61.10
2018-05-15T18:27:55.621Z,59.30
2018-05-15T18:30:27.976Z,59.30
2018-05-15T18:33:00.307Z,58.70
2018-05-15T18:35:33.606Z,59.50
2018-05-15T18:38:05.951Z,59.50
2018-05-15T18:40:39.149Z,62.20
2018-05-15T18:43:11.592Z,62.10
2018-05-15T18:45:43.948Z,62.00
2018-05-15T18:48:16.220Z,64.00
2018-05-15T18:50:48.596Z,62.50
2018-05-15T18:53:20.882Z,63.10
2018-05-15T18:55:53.182Z,63.60
2018-05-15T18:58:26.298Z,64.30
2018-05-15T19:00:58.985Z,64.20
2018-05-15T19:03:31.405Z,64.60
2018-05-15T19:06:03.794Z,65.70
2018-05-15T19:08:36.150Z,65.40
2018-05-15T19:11:08.529Z,67.20
2018-05-15T19:13:40.880Z,67.30
2018-05-15T19:16:13.344Z,68.90
2018-05-15T19:18:45.696Z,67.80
2018-05-15T19:21:18.121Z,69.20
2018-05-15T19:23:50.427Z,69.10
2018-05-15T19:26:23.474Z,67.90
2018-05-15T19:28:56.000Z,67.80
2018-05-15T19:31:28.332Z,67.10
2018-05-15T19:34:00.933Z,67.30
2018-05-15T19:36:33.235Z,70.20
2018-05-15T19:39:06.281Z,70.20
2018-05-15T19:41:39.368Z,71.60
2018-05-15T19:44:11.677Z,71.60
2018-05-15T19:46:44.023Z,72.00
2018-05-15T19:49:17.165Z,70.10
2018-05-15T19:51:49.548Z,70.10
2018-05-15T19:54:21.783Z,67.90
2018-05-15T19:56:54.096Z,68.50
2018-05-15T19:59:26.459Z,67.90
2018-05-15T20:01:58.904Z,68.80
2018-05-15T20:04:31.198Z,69.00
2018-05-15T20:07:03.515Z,69.80
2018-05-15T20:09:36.652Z,68.20
2018-05-15T20:12:09.064Z,68.10
2018-05-15T20:14:41.399Z,68.00
2018-05-15T20:17:13.833Z,69.20
2018-05-15T20:19:46.277Z,68.60
2018-05-15T20:22:18.570Z,69.30
2018-05-15T20:24:51.713Z,69.90
2018-05-15T20:27:23.997Z,69.90
2018-05-15T20:29:56.284Z,69.70
2018-05-15T20:32:29.034Z,69.70
2018-05-15T20:35:01.575Z,68.90
2018-05-15T20:37:33.718Z,70.60
2018-05-15T20:40:05.983Z,70.20
2018-05-15T20:42:38.312Z,70.70
2018-05-15T20:45:10.648Z,71.20
2018-05-15T20:47:43.783Z,70.40
2018-05-15T20:50:16.247Z,70.40
2018-05-15T20:52:48.718Z,72.20
2018-05-15T20:55:21.069Z,71.30
2018-05-15T20:57:53.548Z,70.60
2018-05-15T21:00:25.970Z,71.40
2018-05-15T21:02:58.357Z,70.50
2018-05-15T21:05:30.652Z,70.40
2018-05-15T21:08:03.133Z,71.00
2018-05-15T21:10:36.220Z,72.80
2018-05-15T21:13:09.397Z,72.70
2018-05-15T21:15:41.719Z,72.60
2018-05-15T21:18:14.065Z,73.90
2018-05-15T21:20:46.473Z,74.50
2018-05-15T21:23:18.802Z,73.60
2018-05-15T21:25:51.947Z,73.30
2018-05-15T21:28:24.271Z,73.20
2018-05-15T21:30:56.575Z,74.30
2018-05-15T21:33:28.991Z,74.70
2018-05-15T21:36:02.167Z,76.30
2018-05-15T21:38:34.519Z,76.30
2018-05-15T21:41:06.741Z,75.20
2018-05-15T21:43:39.917Z,74.60
2018-05-15T21:46:12.187Z,74.50
2018-05-15T21:48:44.559Z,74.30
2018-05-15T21:51:16.819Z,73.40
2018-05-15T21:53:49.278Z,73.40
2018-05-15T21:56:21.647Z,72.90
2018-05-15T21:58:53.971Z,72.50
2018-05-15T22:01:26.250Z,72.10
2018-05-15T22:03:58.608Z,71.90
2018-05-15T22:06:30.935Z,72.10
2018-05-15T22:09:03.331Z,72.00
2018-05-15T22:11:35.364Z,72.00
2018-05-15T22:14:20.102Z,71.70
2018-05-15T22:17:04.755Z,73.30
2018-05-15T22:19:49.560Z,73.50
2018-05-15T22:22:21.822Z,71.60
2018-05-15T22:24:54.184Z,72.30
2018-05-15T22:27:26.653Z,73.10
2018-05-15T22:29:59.076Z,72.10
2018-05-15T22:32:32.223Z,71.90
2018-05-15T22:35:04.659Z,71.80
2018-05-15T22:37:37.005Z,71.40
2018-05-15T22:40:10.109Z,72.10
2018-05-15T22:42:43.183Z,72.40
2018-05-15T22:45:16.349Z,72.50
2018-05-15T22:47:48.725Z,72.50
2018-05-15T22:50:21.198Z,72.60
2018-05-15T22:52:54.563Z,74.30
2018-05-15T22:55:27.041Z,74.20
2018-05-15T22:57:59.343Z,74.20
2018-05-15T23:00:31.733Z,73.80
2018-05-15T23:03:03.933Z,74.00
2018-05-15T23:05:37.066Z,75.70
2018-05-15T23:08:09.373Z,75.60
2018-05-15T23:10:41.867Z,74.20
2018-05-15T23:13:14.119Z,75.00
2018-05-15T23:15:46.679Z,74.10
2018-05-15T23:18:19.001Z,75.00
2018-05-15T23:20:51.427Z,75.40
2018-05-15T23:23:23.782Z,76.80
2018-05-15T23:25:56.099Z,75.30
2018-05-15T23:28:29.192Z,74.70
2018-05-15T23:31:02.319Z,75.70
2018-05-15T23:33:34.625Z,75.70
2018-05-15T23:36:07.029Z,74.50
2018-05-15T23:38:40.181Z,75.20
2018-05-15T23:41:12.589Z,75.20
2018-05-15T23:43:45.663Z,74.60
2018-05-15T23:46:17.999Z,74.60
2018-05-15T23:48:50.291Z,75.10
2018-05-15T23:51:22.575Z,75.30
2018-05-15T23:53:55.754Z,77.20
2018-05-15T23:56:28.137Z,77.20
2018-05-15T23:59:00.394Z,77.40
